sensor_id;sensor_type;location;lat;lon;timestamp;P1;durP1;ratioP1;P2;durP2;ratioP2
5303;SDS011;2674;49.722;10.892;2023-02-18T00:00:17;5.57;;;5.17;;
5303;SDS011;2674;49.722;10.892;2023-02-18T00:02:44;6.57;;;5.27;;
5303;SDS011;2674;49.722;10.892;2023-02-18T00:05:11;6.37;;;5.77;;
5303;SDS011;2674;49.722;10.892;2023-02-18T00:07:38;5.37;;;4.87;;
5303;SDS011;2674;49.722;10.892;2023-02-18T00:10:06;7.77;;;5.50;;
5303;SDS011;2674;49.722;10.892;2023-02-18T00:12:35;4.97;;;4.50;;
5303;SDS011;2674;49.722;10.892;2023-02-18T00:15:01;6.03;;;5.47;;
5303;SDS011;2674;49.722;10.892;2023-02-18T00:17:27;6.17;;;5.60;;
5303;SDS011;2674;49.722;10.892;2023-02-18T00:19:53;6.50;;;5.90;;
5303;SDS011;2674;49.722;10.892;2023-02-18T00:22:19;6.00;;;5.50;;
5303;SDS011;2674;49.722;10.892;2023-02-18T00:24:45;5.13;;;4.70;;
5303;SDS011;2674;49.722;10.892;2023-02-18T00:27:11;6.07;;;5.47;;
5303;SDS011;2674;49.722;10.892;2023-02-18T00:29:36;6.83;;;5.30;;
5303;SDS011;2674;49.722;10.892;2023-02-18T00:32:02;6.03;;;5.47;;
5303;SDS011;2674;49.722;10.892;2023-02-18T00:34:28;5.13;;;4.73;;
5303;SDS011;2674;49.722;10.892;2023-02-18T00:36:54;6.13;;;4.73;;
5303;SDS011;2674;49.722;10.892;2023-02-18T00:39:20;5.73;;;5.23;;
5303;SDS011;2674;49.722;10.892;2023-02-18T00:41:45;5.90;;;5.30;;
5303;SDS011;2674;49.722;10.892;2023-02-18T00:44:11;9.37;;;5.87;;
5303;SDS011;2674;49.722;10.892;2023-02-18T00:46:38;6.63;;;6.07;;
5303;SDS011;2674;49.722;10.892;2023-02-18T00:49:04;7.00;;;6.40;;
5303;SDS011;2674;49.722;10.892;2023-02-18T00:51:30;7.40;;;6.70;;
5303;SDS011;2674;49.722;10.892;2023-02-18T00:53:56;6.60;;;6.00;;
5303;SDS011;2674;49.722;10.892;2023-02-18T00:56:22;8.27;;;7.40;;
5303;SDS011;2674;49.722;10.892;2023-02-18T00:58:48;6.70;;;6.10;;
5303;SDS011;2674;49.722;10.892;2023-02-18T01:01:14;8.57;;;7.67;;
5303;SDS011;2674;49.722;10.892;2023-02-18T01:03:41;9.33;;;8.27;;
5303;SDS011;2674;49.722;10.892;2023-02-18T01:06:07;8.33;;;7.53;;
5303;SDS011;2674;49.722;10.892;2023-02-18T01:08:34;10.77;;;8.67;;
5303;SDS011;2674;49.722;10.892;2023-02-18T01:11:02;10.07;;;8.17;;
5303;SDS011;2674;49.722;10.892;2023-02-18T01:13:29;10.03;;;9.03;;
5303;SDS011;2674;49.722;10.892;2023-02-18T01:15:55;8.63;;;7.73;;
5303;SDS011;2674;49.722;10.892;2023-02-18T01:18:21;8.80;;;8.00;;
5303;SDS011;2674;49.722;10.892;2023-02-18T01:20:49;9.90;;;8.90;;
5303;SDS011;2674;49.722;10.892;2023-02-18T01:23:15;8.80;;;7.90;;
5303;SDS011;2674;49.722;10.892;2023-02-18T01:25:41;10.30;;;9.30;;
5303;SDS011;2674;49.722;10.892;2023-02-18T01:28:08;10.50;;;9.37;;
5303;SDS011;2674;49.722;10.892;2023-02-18T01:30:35;9.67;;;8.67;;
5303;SDS011;2674;49.722;10.892;2023-02-18T01:33:01;11.23;;;10.03;;
5303;SDS011;2674;49.722;10.892;2023-02-18T01:35:26;10.00;;;8.43;;
5303;SDS011;2674;49.722;10.892;2023-02-18T01:37:52;10.10;;;9.10;;
5303;SDS011;2674;49.722;10.892;2023-02-18T01:40:19;11.50;;;10.00;;
5303;SDS011;2674;49.722;10.892;2023-02-18T01:42:48;11.20;;;10.10;;
5303;SDS011;2674;49.722;10.892;2023-02-18T01:48:07;11.13;;;9.47;;
5303;SDS011;2674;49.722;10.892;2023-02-18T01:50:53;9.97;;;8.97;;
5303;SDS011;2674;49.722;10.892;2023-02-18T01:53:30;9.13;;;8.23;;
5303;SDS011;2674;49.722;10.892;2023-02-18T01:56:04;8.57;;;7.73;;
5303;SDS011;2674;49.722;10.892;2023-02-18T01:58:34;8.87;;;8.07;;
5303;SDS011;2674;49.722;10.892;2023-02-18T02:01:01;8.70;;;8.00;;
5303;SDS011;2674;49.722;10.892;2023-02-18T02:03:27;7.20;;;6.43;;
5303;SDS011;2674;49.722;10.892;2023-02-18T02:05:52;7.20;;;6.50;;
5303;SDS011;2674;49.722;10.892;2023-02-18T02:08:19;6.50;;;5.90;;
5303;SDS011;2674;49.722;10.892;2023-02-18T02:11:07;6.17;;;5.63;;
5303;SDS011;2674;49.722;10.892;2023-02-18T02:27:02;7.10;;;6.50;;
5303;SDS011;2674;49.722;10.892;2023-02-18T02:29:48;6.33;;;5.73;;
5303;SDS011;2674;49.722;10.892;2023-02-18T02:36:22;5.80;;;5.33;;
5303;SDS011;2674;49.722;10.892;2023-02-18T02:44:21;5.43;;;4.93;;
5303;SDS011;2674;49.722;10.892;2023-02-18T02:47:06;5.30;;;4.80;;
5303;SDS011;2674;49.722;10.892;2023-02-18T02:49:59;6.00;;;5.50;;
5303;SDS011;2674;49.722;10.892;2023-02-18T02:52:23;5.77;;;5.27;;
5303;SDS011;2674;49.722;10.892;2023-02-18T02:54:53;5.50;;;5.10;;
5303;SDS011;2674;49.722;10.892;2023-02-18T02:59:46;5.83;;;5.33;;
5303;SDS011;2674;49.722;10.892;2023-02-18T03:06:14;4.73;;;4.43;;
5303;SDS011;2674;49.722;10.892;2023-02-18T03:08:29;4.70;;;4.30;;
5303;SDS011;2674;49.722;10.892;2023-02-18T03:11:05;4.53;;;4.13;;
5303;SDS011;2674;49.722;10.892;2023-02-18T03:13:44;4.87;;;4.47;;
5303;SDS011;2674;49.722;10.892;2023-02-18T03:21:44;4.00;;;3.70;;
5303;SDS011;2674;49.722;10.892;2023-02-18T03:26:50;5.57;;;5.07;;
5303;SDS011;2674;49.722;10.892;2023-02-18T03:29:30;5.00;;;4.57;;
5303;SDS011;2674;49.722;10.892;2023-02-18T03:31:59;4.60;;;4.20;;
5303;SDS011;2674;49.722;10.892;2023-02-18T03:34:32;4.90;;;4.50;;
5303;SDS011;2674;49.722;10.892;2023-02-18T03:37:01;5.30;;;4.90;;
5303;SDS011;2674;49.722;10.892;2023-02-18T03:39:28;4.90;;;4.50;;
5303;SDS011;2674;49.722;10.892;2023-02-18T03:41:56;5.13;;;4.33;;
5303;SDS011;2674;49.722;10.892;2023-02-18T03:44:23;5.60;;;4.33;;
5303;SDS011;2674;49.722;10.892;2023-02-18T03:46:50;4.00;;;3.70;;
5303;SDS011;2674;49.722;10.892;2023-02-18T03:49:16;4.60;;;4.20;;
5303;SDS011;2674;49.722;10.892;2023-02-18T03:51:42;4.27;;;3.93;;
5303;SDS011;2674;49.722;10.892;2023-02-18T03:54:08;4.10;;;3.77;;
5303;SDS011;2674;49.722;10.892;2023-02-18T03:56:38;6.13;;;5.13;;
5303;SDS011;2674;49.722;10.892;2023-02-18T03:59:04;4.60;;;4.20;;
5303;SDS011;2674;49.722;10.892;2023-02-18T04:01:30;3.80;;;3.60;;
5303;SDS011;2674;49.722;10.892;2023-02-18T04:03:56;4.03;;;3.73;;
5303;SDS011;2674;49.722;10.892;2023-02-18T04:06:22;5.27;;;4.67;;
5303;SDS011;2674;49.722;10.892;2023-02-18T04:08:48;4.30;;;4.00;;
5303;SDS011;2674;49.722;10.892;2023-02-18T04:11:14;4.50;;;4.10;;
5303;SDS011;2674;49.722;10.892;2023-02-18T04:13:40;3.63;;;3.37;;
5303;SDS011;2674;49.722;10.892;2023-02-18T04:16:06;7.10;;;3.80;;
5303;SDS011;2674;49.722;10.892;2023-02-18T04:18:31;3.10;;;2.90;;
5303;SDS011;2674;49.722;10.892;2023-02-18T04:20:57;5.00;;;3.73;;
5303;SDS011;2674;49.722;10.892;2023-02-18T04:23:23;4.00;;;3.67;;
5303;SDS011;2674;49.722;10.892;2023-02-18T04:25:49;2.90;;;2.70;;
5303;SDS011;2674;49.722;10.892;2023-02-18T04:28:15;4.30;;;3.37;;
5303;SDS011;2674;49.722;10.892;2023-02-18T04:30:45;3.33;;;3.13;;
5303;SDS011;2674;49.722;10.892;2023-02-18T04:33:11;2.87;;;2.67;;
5303;SDS011;2674;49.722;10.892;2023-02-18T04:35:37;2.30;;;2.13;;
5303;SDS011;2674;49.722;10.892;2023-02-18T04:38:05;2.80;;;2.60;;
5303;SDS011;2674;49.722;10.892;2023-02-18T04:40:32;2.50;;;2.30;;
5303;SDS011;2674;49.722;10.892;2023-02-18T04:42:58;2.33;;;2.23;;
5303;SDS011;2674;49.722;10.892;2023-02-18T04:45:25;2.20;;;2.10;;
5303;SDS011;2674;49.722;10.892;2023-02-18T04:47:51;2.40;;;2.30;;
5303;SDS011;2674;49.722;10.892;2023-02-18T04:50:17;2.83;;;2.63;;
5303;SDS011;2674;49.722;10.892;2023-02-18T04:52:44;2.47;;;2.37;;
5303;SDS011;2674;49.722;10.892;2023-02-18T04:55:10;2.63;;;2.43;;
5303;SDS011;2674;49.722;10.892;2023-02-18T04:57:36;2.83;;;2.63;;
5303;SDS011;2674;49.722;10.892;2023-02-18T05:00:02;2.80;;;2.60;;
5303;SDS011;2674;49.722;10.892;2023-02-18T05:02:31;5.93;;;2.90;;
5303;SDS011;2674;49.722;10.892;2023-02-18T05:04:57;3.90;;;3.60;;
5303;SDS011;2674;49.722;10.892;2023-02-18T05:07:23;4.03;;;3.60;;
5303;SDS011;2674;49.722;10.892;2023-02-18T05:09:49;4.57;;;4.10;;
5303;SDS011;2674;49.722;10.892;2023-02-18T05:12:15;3.87;;;3.57;;
5303;SDS011;2674;49.722;10.892;2023-02-18T05:14:41;4.67;;;4.27;;
5303;SDS011;2674;49.722;10.892;2023-02-18T05:17:07;3.93;;;3.50;;
5303;SDS011;2674;49.722;10.892;2023-02-18T05:19:33;4.43;;;4.03;;
5303;SDS011;2674;49.722;10.892;2023-02-18T05:21:59;3.70;;;3.50;;
5303;SDS011;2674;49.722;10.892;2023-02-18T05:24:25;7.13;;;3.90;;
5303;SDS011;2674;49.722;10.892;2023-02-18T05:26:50;4.40;;;4.00;;
5303;SDS011;2674;49.722;10.892;2023-02-18T05:29:19;4.60;;;4.20;;
5303;SDS011;2674;49.722;10.892;2023-02-18T05:31:45;4.20;;;3.87;;
5303;SDS011;2674;49.722;10.892;2023-02-18T05:34:11;19.30;;;3.67;;
5303;SDS011;2674;49.722;10.892;2023-02-18T05:36:37;4.53;;;4.20;;
5303;SDS011;2674;49.722;10.892;2023-02-18T05:39:02;5.03;;;4.63;;
5303;SDS011;2674;49.722;10.892;2023-02-18T05:41:28;7.17;;;5.17;;
5303;SDS011;2674;49.722;10.892;2023-02-18T05:43:54;4.10;;;3.80;;
5303;SDS011;2674;49.722;10.892;2023-02-18T05:46:39;5.73;;;4.47;;
5303;SDS011;2674;49.722;10.892;2023-02-18T05:49:04;4.90;;;4.43;;
5303;SDS011;2674;49.722;10.892;2023-02-18T05:51:30;4.70;;;4.30;;
5303;SDS011;2674;49.722;10.892;2023-02-18T05:53:56;5.03;;;4.63;;
5303;SDS011;2674;49.722;10.892;2023-02-18T05:56:22;5.00;;;4.60;;
5303;SDS011;2674;49.722;10.892;2023-02-18T05:58:47;5.03;;;4.63;;
5303;SDS011;2674;49.722;10.892;2023-02-18T06:01:13;4.40;;;4.00;;
5303;SDS011;2674;49.722;10.892;2023-02-18T06:03:39;5.20;;;4.70;;
5303;SDS011;2674;49.722;10.892;2023-02-18T06:06:05;5.77;;;5.13;;
5303;SDS011;2674;49.722;10.892;2023-02-18T06:08:31;4.70;;;4.30;;
5303;SDS011;2674;49.722;10.892;2023-02-18T06:10:57;4.60;;;4.20;;
5303;SDS011;2674;49.722;10.892;2023-02-18T06:13:23;5.70;;;5.20;;
5303;SDS011;2674;49.722;10.892;2023-02-18T06:15:49;6.20;;;4.47;;
5303;SDS011;2674;49.722;10.892;2023-02-18T06:18:16;4.47;;;4.07;;
5303;SDS011;2674;49.722;10.892;2023-02-18T06:20:42;4.60;;;4.20;;
5303;SDS011;2674;49.722;10.892;2023-02-18T06:23:08;6.00;;;4.73;;
5303;SDS011;2674;49.722;10.892;2023-02-18T06:25:33;4.47;;;4.10;;
5303;SDS011;2674;49.722;10.892;2023-02-18T06:27:59;6.13;;;4.87;;
5303;SDS011;2674;49.722;10.892;2023-02-18T06:30:25;4.70;;;4.30;;
5303;SDS011;2674;49.722;10.892;2023-02-18T06:32:51;5.47;;;4.90;;
5303;SDS011;2674;49.722;10.892;2023-02-18T06:35:17;6.37;;;5.43;;
5303;SDS011;2674;49.722;10.892;2023-02-18T06:37:44;5.93;;;4.90;;
5303;SDS011;2674;49.722;10.892;2023-02-18T06:40:10;5.13;;;4.70;;
5303;SDS011;2674;49.722;10.892;2023-02-18T06:42:36;7.30;;;5.73;;
5303;SDS011;2674;49.722;10.892;2023-02-18T06:45:02;5.10;;;4.60;;
5303;SDS011;2674;49.722;10.892;2023-02-18T06:47:28;6.73;;;5.40;;
5303;SDS011;2674;49.722;10.892;2023-02-18T06:49:54;7.10;;;6.40;;
5303;SDS011;2674;49.722;10.892;2023-02-18T06:52:20;7.63;;;6.17;;
5303;SDS011;2674;49.722;10.892;2023-02-18T06:54:45;6.07;;;5.47;;
5303;SDS011;2674;49.722;10.892;2023-02-18T06:57:11;6.67;;;6.03;;
5303;SDS011;2674;49.722;10.892;2023-02-18T06:59:37;8.10;;;6.57;;
5303;SDS011;2674;49.722;10.892;2023-02-18T07:02:03;7.10;;;6.30;;
5303;SDS011;2674;49.722;10.892;2023-02-18T07:04:29;7.80;;;6.87;;
5303;SDS011;2674;49.722;10.892;2023-02-18T07:06:58;7.43;;;6.63;;
5303;SDS011;2674;49.722;10.892;2023-02-18T07:09:23;9.20;;;7.33;;
5303;SDS011;2674;49.722;10.892;2023-02-18T07:11:49;9.07;;;8.10;;
5303;SDS011;2674;49.722;10.892;2023-02-18T07:14:18;10.80;;;8.40;;
5303;SDS011;2674;49.722;10.892;2023-02-18T07:16:44;9.73;;;7.80;;
5303;SDS011;2674;49.722;10.892;2023-02-18T07:19:10;9.87;;;7.10;;
5303;SDS011;2674;49.722;10.892;2023-02-18T07:21:35;9.83;;;8.37;;
5303;SDS011;2674;49.722;10.892;2023-02-18T07:24:01;10.07;;;8.30;;
5303;SDS011;2674;49.722;10.892;2023-02-18T07:26:27;11.20;;;8.60;;
5303;SDS011;2674;49.722;10.892;2023-02-18T07:28:53;12.23;;;10.70;;
5303;SDS011;2674;49.722;10.892;2023-02-18T07:31:19;13.03;;;9.50;;
5303;SDS011;2674;49.722;10.892;2023-02-18T07:33:45;10.90;;;9.33;;
5303;SDS011;2674;49.722;10.892;2023-02-18T07:36:11;11.40;;;9.33;;
5303;SDS011;2674;49.722;10.892;2023-02-18T07:38:36;13.63;;;10.10;;
5303;SDS011;2674;49.722;10.892;2023-02-18T07:41:02;15.80;;;10.43;;
5303;SDS011;2674;49.722;10.892;2023-02-18T07:43:28;12.90;;;9.90;;
5303;SDS011;2674;49.722;10.892;2023-02-18T07:45:54;14.60;;;10.20;;
5303;SDS011;2674;49.722;10.892;2023-02-18T07:48:20;11.63;;;10.10;;
5303;SDS011;2674;49.722;10.892;2023-02-18T07:50:46;13.20;;;10.37;;
5303;SDS011;2674;49.722;10.892;2023-02-18T07:53:13;15.97;;;10.43;;
5303;SDS011;2674;49.722;10.892;2023-02-18T07:55:40;13.20;;;9.33;;
5303;SDS011;2674;49.722;10.892;2023-02-18T08:00:45;16.70;;;11.27;;
5303;SDS011;2674;49.722;10.892;2023-02-18T08:03:15;13.70;;;10.93;;
5303;SDS011;2674;49.722;10.892;2023-02-18T08:05:42;12.00;;;9.90;;
5303;SDS011;2674;49.722;10.892;2023-02-18T08:08:12;12.80;;;10.60;;
5303;SDS011;2674;49.722;10.892;2023-02-18T08:10:39;12.73;;;10.40;;
5303;SDS011;2674;49.722;10.892;2023-02-18T08:13:05;12.73;;;10.23;;
5303;SDS011;2674;49.722;10.892;2023-02-18T08:15:31;16.00;;;11.40;;
5303;SDS011;2674;49.722;10.892;2023-02-18T08:17:57;13.30;;;10.33;;
5303;SDS011;2674;49.722;10.892;2023-02-18T08:20:23;15.37;;;10.53;;
5303;SDS011;2674;49.722;10.892;2023-02-18T08:22:48;15.93;;;10.93;;
5303;SDS011;2674;49.722;10.892;2023-02-18T08:25:14;15.57;;;10.77;;
5303;SDS011;2674;49.722;10.892;2023-02-18T08:27:40;14.70;;;10.60;;
5303;SDS011;2674;49.722;10.892;2023-02-18T08:30:06;13.23;;;10.90;;
5303;SDS011;2674;49.722;10.892;2023-02-18T08:32:32;17.90;;;11.17;;
5303;SDS011;2674;49.722;10.892;2023-02-18T08:34:58;13.60;;;11.13;;
5303;SDS011;2674;49.722;10.892;2023-02-18T08:37:24;14.87;;;11.57;;
5303;SDS011;2674;49.722;10.892;2023-02-18T08:39:50;12.97;;;10.23;;
5303;SDS011;2674;49.722;10.892;2023-02-18T08:42:16;13.70;;;10.77;;
5303;SDS011;2674;49.722;10.892;2023-02-18T08:44:42;12.70;;;10.97;;
5303;SDS011;2674;49.722;10.892;2023-02-18T08:47:08;13.10;;;10.50;;
5303;SDS011;2674;49.722;10.892;2023-02-18T08:49:34;11.17;;;10.00;;
5303;SDS011;2674;49.722;10.892;2023-02-18T08:52:01;12.20;;;8.40;;
5303;SDS011;2674;49.722;10.892;2023-02-18T08:54:28;10.67;;;9.20;;
5303;SDS011;2674;49.722;10.892;2023-02-18T08:56:54;11.20;;;9.77;;
5303;SDS011;2674;49.722;10.892;2023-02-18T08:59:23;13.10;;;9.63;;
5303;SDS011;2674;49.722;10.892;2023-02-18T09:01:49;11.07;;;9.10;;
5303;SDS011;2674;49.722;10.892;2023-02-18T09:04:15;10.10;;;8.50;;
5303;SDS011;2674;49.722;10.892;2023-02-18T09:06:41;9.10;;;8.03;;
5303;SDS011;2674;49.722;10.892;2023-02-18T09:09:07;9.53;;;8.53;;
5303;SDS011;2674;49.722;10.892;2023-02-18T09:11:34;12.40;;;7.70;;
5303;SDS011;2674;49.722;10.892;2023-02-18T09:14:00;9.13;;;7.83;;
5303;SDS011;2674;49.722;10.892;2023-02-18T09:16:27;9.10;;;7.90;;
5303;SDS011;2674;49.722;10.892;2023-02-18T09:18:54;10.80;;;8.93;;
5303;SDS011;2674;49.722;10.892;2023-02-18T09:21:20;11.33;;;7.43;;
5303;SDS011;2674;49.722;10.892;2023-02-18T09:23:47;10.10;;;8.03;;
5303;SDS011;2674;49.722;10.892;2023-02-18T09:26:14;8.53;;;7.00;;
5303;SDS011;2674;49.722;10.892;2023-02-18T09:28:42;11.80;;;8.63;;
5303;SDS011;2674;49.722;10.892;2023-02-18T09:31:09;8.43;;;7.23;;
5303;SDS011;2674;49.722;10.892;2023-02-18T09:33:46;9.07;;;7.17;;
5303;SDS011;2674;49.722;10.892;2023-02-18T09:36:14;10.87;;;6.60;;
5303;SDS011;2674;49.722;10.892;2023-02-18T09:38:41;8.03;;;7.23;;
5303;SDS011;2674;49.722;10.892;2023-02-18T09:41:08;7.60;;;6.90;;
5303;SDS011;2674;49.722;10.892;2023-02-18T09:43:49;7.37;;;6.60;;
5303;SDS011;2674;49.722;10.892;2023-02-18T09:46:29;7.57;;;6.77;;
5303;SDS011;2674;49.722;10.892;2023-02-18T09:49:17;7.00;;;5.67;;
5303;SDS011;2674;49.722;10.892;2023-02-18T09:51:47;9.43;;;8.47;;
5303;SDS011;2674;49.722;10.892;2023-02-18T09:54:14;5.93;;;5.30;;
5303;SDS011;2674;49.722;10.892;2023-02-18T09:56:42;10.03;;;6.97;;
5303;SDS011;2674;49.722;10.892;2023-02-18T09:59:16;7.30;;;6.67;;
5303;SDS011;2674;49.722;10.892;2023-02-18T10:01:44;9.13;;;6.97;;
5303;SDS011;2674;49.722;10.892;2023-02-18T10:04:17;7.57;;;6.10;;
5303;SDS011;2674;49.722;10.892;2023-02-18T10:06:50;8.30;;;7.40;;
5303;SDS011;2674;49.722;10.892;2023-02-18T10:09:18;6.70;;;6.10;;
5303;SDS011;2674;49.722;10.892;2023-02-18T10:11:52;6.70;;;5.63;;
5303;SDS011;2674;49.722;10.892;2023-02-18T10:14:21;6.97;;;6.30;;
5303;SDS011;2674;49.722;10.892;2023-02-18T10:16:49;6.70;;;6.07;;
5303;SDS011;2674;49.722;10.892;2023-02-18T10:19:30;5.90;;;5.30;;
5303;SDS011;2674;49.722;10.892;2023-02-18T10:22:00;6.40;;;5.57;;
5303;SDS011;2674;49.722;10.892;2023-02-18T10:26:56;6.97;;;5.90;;
5303;SDS011;2674;49.722;10.892;2023-02-18T10:29:22;6.20;;;5.67;;
5303;SDS011;2674;49.722;10.892;2023-02-18T10:31:51;7.27;;;6.07;;
5303;SDS011;2674;49.722;10.892;2023-02-18T10:34:38;6.13;;;5.63;;
5303;SDS011;2674;49.722;10.892;2023-02-18T10:51:22;10.40;;;6.47;;
5303;SDS011;2674;49.722;10.892;2023-02-18T10:53:51;17.10;;;4.97;;
5303;SDS011;2674;49.722;10.892;2023-02-18T10:56:37;7.20;;;5.93;;
5303;SDS011;2674;49.722;10.892;2023-02-18T10:59:05;5.83;;;5.27;;
5303;SDS011;2674;49.722;10.892;2023-02-18T11:01:39;7.27;;;5.63;;
5303;SDS011;2674;49.722;10.892;2023-02-18T11:04:17;7.20;;;5.37;;
5303;SDS011;2674;49.722;10.892;2023-02-18T11:06:48;6.70;;;4.70;;
5303;SDS011;2674;49.722;10.892;2023-02-18T11:11:51;6.27;;;5.37;;
5303;SDS011;2674;49.722;10.892;2023-02-18T11:14:37;6.03;;;5.43;;
5303;SDS011;2674;49.722;10.892;2023-02-18T11:17:14;6.20;;;5.60;;
5303;SDS011;2674;49.722;10.892;2023-02-18T11:19:50;10.70;;;4.90;;
5303;SDS011;2674;49.722;10.892;2023-02-18T11:22:19;7.77;;;5.03;;
5303;SDS011;2674;49.722;10.892;2023-02-18T11:24:56;7.97;;;5.20;;
5303;SDS011;2674;49.722;10.892;2023-02-18T11:27:30;6.50;;;5.43;;
5303;SDS011;2674;49.722;10.892;2023-02-18T11:30:30;7.23;;;5.50;;
5303;SDS011;2674;49.722;10.892;2023-02-18T11:33:08;5.87;;;5.30;;
5303;SDS011;2674;49.722;10.892;2023-02-18T11:35:51;5.60;;;5.03;;
5303;SDS011;2674;49.722;10.892;2023-02-18T11:38:25;7.60;;;5.80;;
5303;SDS011;2674;49.722;10.892;2023-02-18T11:41:02;6.93;;;5.23;;
5303;SDS011;2674;49.722;10.892;2023-02-18T11:43:33;6.20;;;4.87;;
5303;SDS011;2674;49.722;10.892;2023-02-18T11:46:13;6.70;;;5.57;;
5303;SDS011;2674;49.722;10.892;2023-02-18T11:48:41;8.17;;;4.57;;
5303;SDS011;2674;49.722;10.892;2023-02-18T11:53:55;7.17;;;5.33;;
5303;SDS011;2674;49.722;10.892;2023-02-18T11:56:23;6.10;;;5.40;;
5303;SDS011;2674;49.722;10.892;2023-02-18T11:58:55;5.70;;;5.20;;
5303;SDS011;2674;49.722;10.892;2023-02-18T12:04:04;6.20;;;4.90;;
5303;SDS011;2674;49.722;10.892;2023-02-18T12:09:30;11.80;;;4.37;;
5303;SDS011;2674;49.722;10.892;2023-02-18T12:11:59;5.23;;;4.70;;
5303;SDS011;2674;49.722;10.892;2023-02-18T12:14:30;5.93;;;5.33;;
5303;SDS011;2674;49.722;10.892;2023-02-18T12:25:24;7.33;;;5.80;;
5303;SDS011;2674;49.722;10.892;2023-02-18T12:48:19;6.70;;;5.50;;
5303;SDS011;2674;49.722;10.892;2023-02-18T12:59:42;7.00;;;6.30;;
5303;SDS011;2674;49.722;10.892;2023-02-18T13:02:28;6.30;;;5.70;;
5303;SDS011;2674;49.722;10.892;2023-02-18T13:15:53;7.33;;;6.30;;
5303;SDS011;2674;49.722;10.892;2023-02-18T13:18:38;6.80;;;6.20;;
5303;SDS011;2674;49.722;10.892;2023-02-18T13:21:25;6.17;;;5.50;;
5303;SDS011;2674;49.722;10.892;2023-02-18T13:24:06;8.33;;;6.73;;
5303;SDS011;2674;49.722;10.892;2023-02-18T13:26:36;5.70;;;4.93;;
5303;SDS011;2674;49.722;10.892;2023-02-18T13:34:48;8.73;;;6.23;;
5303;SDS011;2674;49.722;10.892;2023-02-18T13:37:35;6.40;;;5.37;;
5303;SDS011;2674;49.722;10.892;2023-02-18T13:40:18;6.07;;;5.40;;
5303;SDS011;2674;49.722;10.892;2023-02-18T13:42:51;6.30;;;5.43;;
5303;SDS011;2674;49.722;10.892;2023-02-18T13:45:22;6.50;;;5.20;;
5303;SDS011;2674;49.722;10.892;2023-02-18T13:47:56;8.23;;;6.53;;
5303;SDS011;2674;49.722;10.892;2023-02-18T13:58:11;9.80;;;6.17;;
5303;SDS011;2674;49.722;10.892;2023-02-18T14:01:00;6.90;;;6.00;;
5303;SDS011;2674;49.722;10.892;2023-02-18T14:06:20;6.30;;;5.70;;
5303;SDS011;2674;49.722;10.892;2023-02-18T14:08:50;7.33;;;5.53;;
5303;SDS011;2674;49.722;10.892;2023-02-18T14:11:39;8.20;;;5.80;;
5303;SDS011;2674;49.722;10.892;2023-02-18T14:19:38;7.17;;;5.43;;
5303;SDS011;2674;49.722;10.892;2023-02-18T14:22:25;7.07;;;5.60;;
5303;SDS011;2674;49.722;10.892;2023-02-18T14:24:55;7.00;;;5.37;;
5303;SDS011;2674;49.722;10.892;2023-02-18T14:27:27;7.10;;;4.70;;
5303;SDS011;2674;49.722;10.892;2023-02-18T14:29:55;5.53;;;4.87;;
5303;SDS011;2674;49.722;10.892;2023-02-18T14:32:32;8.80;;;6.43;;
5303;SDS011;2674;49.722;10.892;2023-02-18T14:35:03;7.53;;;6.60;;
5303;SDS011;2674;49.722;10.892;2023-02-18T14:43:30;8.70;;;5.90;;
5303;SDS011;2674;49.722;10.892;2023-02-18T14:51:34;6.87;;;6.27;;
5303;SDS011;2674;49.722;10.892;2023-02-18T14:54:04;8.77;;;6.27;;
5303;SDS011;2674;49.722;10.892;2023-02-18T14:59:41;6.60;;;5.80;;
5303;SDS011;2674;49.722;10.892;2023-02-18T15:02:19;6.57;;;5.83;;
5303;SDS011;2674;49.722;10.892;2023-02-18T15:04:47;8.10;;;6.47;;
5303;SDS011;2674;49.722;10.892;2023-02-18T15:07:16;6.70;;;6.00;;
5303;SDS011;2674;49.722;10.892;2023-02-18T15:09:48;7.60;;;6.30;;
5303;SDS011;2674;49.722;10.892;2023-02-18T15:12:19;7.70;;;6.73;;
5303;SDS011;2674;49.722;10.892;2023-02-18T15:14:49;12.73;;;6.43;;
5303;SDS011;2674;49.722;10.892;2023-02-18T15:17:18;6.07;;;5.40;;
5303;SDS011;2674;49.722;10.892;2023-02-18T15:19:57;9.40;;;6.60;;
5303;SDS011;2674;49.722;10.892;2023-02-18T15:22:31;8.80;;;5.90;;
5303;SDS011;2674;49.722;10.892;2023-02-18T15:24:59;8.20;;;5.33;;
5303;SDS011;2674;49.722;10.892;2023-02-18T15:27:30;6.23;;;4.83;;
5303;SDS011;2674;49.722;10.892;2023-02-18T15:32:57;14.63;;;5.20;;
5303;SDS011;2674;49.722;10.892;2023-02-18T15:35:28;6.80;;;5.70;;
5303;SDS011;2674;49.722;10.892;2023-02-18T15:37:57;6.33;;;5.73;;
5303;SDS011;2674;49.722;10.892;2023-02-18T15:40:31;6.30;;;5.40;;
5303;SDS011;2674;49.722;10.892;2023-02-18T15:42:59;7.60;;;5.63;;
5303;SDS011;2674;49.722;10.892;2023-02-18T15:45:29;7.20;;;5.60;;
5303;SDS011;2674;49.722;10.892;2023-02-18T15:48:05;5.43;;;4.70;;
5303;SDS011;2674;49.722;10.892;2023-02-18T15:50:32;8.03;;;4.47;;
5303;SDS011;2674;49.722;10.892;2023-02-18T15:53:08;5.90;;;5.30;;
5303;SDS011;2674;49.722;10.892;2023-02-18T15:55:41;7.57;;;5.80;;
5303;SDS011;2674;49.722;10.892;2023-02-18T15:58:14;5.50;;;4.40;;
5303;SDS011;2674;49.722;10.892;2023-02-18T16:01:03;11.60;;;5.80;;
5303;SDS011;2674;49.722;10.892;2023-02-18T16:03:30;7.93;;;6.43;;
5303;SDS011;2674;49.722;10.892;2023-02-18T16:09:06;8.13;;;5.70;;
5303;SDS011;2674;49.722;10.892;2023-02-18T16:11:39;5.77;;;5.17;;
5303;SDS011;2674;49.722;10.892;2023-02-18T16:14:22;9.23;;;7.20;;
5303;SDS011;2674;49.722;10.892;2023-02-18T16:19:42;10.03;;;6.00;;
5303;SDS011;2674;49.722;10.892;2023-02-18T16:22:21;10.90;;;7.70;;
5303;SDS011;2674;49.722;10.892;2023-02-18T16:25:07;10.60;;;5.97;;
5303;SDS011;2674;49.722;10.892;2023-02-18T16:27:54;10.67;;;5.40;;
5303;SDS011;2674;49.722;10.892;2023-02-18T16:30:37;8.43;;;5.90;;
5303;SDS011;2674;49.722;10.892;2023-02-18T16:33:05;6.87;;;6.30;;
5303;SDS011;2674;49.722;10.892;2023-02-18T16:35:32;6.43;;;5.60;;
5303;SDS011;2674;49.722;10.892;2023-02-18T16:37:59;11.17;;;5.83;;
5303;SDS011;2674;49.722;10.892;2023-02-18T16:42:51;10.53;;;5.13;;
5303;SDS011;2674;49.722;10.892;2023-02-18T16:45:18;6.03;;;4.37;;
5303;SDS011;2674;49.722;10.892;2023-02-18T16:47:45;4.40;;;4.00;;
5303;SDS011;2674;49.722;10.892;2023-02-18T16:50:19;5.43;;;4.93;;
5303;SDS011;2674;49.722;10.892;2023-02-18T16:52:46;4.83;;;4.33;;
5303;SDS011;2674;49.722;10.892;2023-02-18T16:55:24;5.70;;;5.03;;
5303;SDS011;2674;49.722;10.892;2023-02-18T16:57:51;4.90;;;4.50;;
5303;SDS011;2674;49.722;10.892;2023-02-18T17:00:17;7.10;;;3.90;;
5303;SDS011;2674;49.722;10.892;2023-02-18T17:02:45;7.30;;;4.50;;
5303;SDS011;2674;49.722;10.892;2023-02-18T17:05:31;4.53;;;4.17;;
5303;SDS011;2674;49.722;10.892;2023-02-18T17:10:40;5.60;;;4.40;;
5303;SDS011;2674;49.722;10.892;2023-02-18T17:13:09;4.60;;;4.20;;
5303;SDS011;2674;49.722;10.892;2023-02-18T17:15:38;5.30;;;4.80;;
5303;SDS011;2674;49.722;10.892;2023-02-18T17:18:06;5.57;;;5.07;;
5303;SDS011;2674;49.722;10.892;2023-02-18T17:20:31;7.70;;;5.70;;
5303;SDS011;2674;49.722;10.892;2023-02-18T17:22:57;7.07;;;4.97;;
5303;SDS011;2674;49.722;10.892;2023-02-18T17:25:44;5.80;;;5.30;;
5303;SDS011;2674;49.722;10.892;2023-02-18T17:28:09;6.80;;;5.43;;
5303;SDS011;2674;49.722;10.892;2023-02-18T17:30:36;5.43;;;4.93;;
5303;SDS011;2674;49.722;10.892;2023-02-18T17:33:04;5.90;;;4.60;;
5303;SDS011;2674;49.722;10.892;2023-02-18T17:35:31;7.67;;;5.97;;
5303;SDS011;2674;49.722;10.892;2023-02-18T17:37:57;8.77;;;4.93;;
5303;SDS011;2674;49.722;10.892;2023-02-18T17:40:24;6.90;;;5.57;;
5303;SDS011;2674;49.722;10.892;2023-02-18T17:42:52;6.13;;;5.23;;
5303;SDS011;2674;49.722;10.892;2023-02-18T17:45:33;5.27;;;4.57;;
5303;SDS011;2674;49.722;10.892;2023-02-18T17:48:00;6.23;;;5.63;;
5303;SDS011;2674;49.722;10.892;2023-02-18T17:50:27;6.67;;;5.83;;
5303;SDS011;2674;49.722;10.892;2023-02-18T17:52:54;7.37;;;5.33;;
5303;SDS011;2674;49.722;10.892;2023-02-18T17:55:21;5.03;;;4.60;;
5303;SDS011;2674;49.722;10.892;2023-02-18T17:57:49;4.80;;;4.40;;
5303;SDS011;2674;49.722;10.892;2023-02-18T18:00:21;5.37;;;4.87;;